Time;durP1;ratioP1;P1;durP2;ratioP2;P2;SDS_P1;SDS_P2;PMS_P1;PMS_P2;Temp;Humidity;BMP_temperature;BMP_pressure;BME280_temperature;BME280_humidity;BME280_pressure;Samples;Min_cycle;Max_cycle;Signal;HPM_P1;HPM_P2
2022/11/12 00:00:01;;;;;;;39.33;6.37;;;;;;;9.08;53.94;101512.81;10431647;28;20228;-67
2022/11/12 00:05:03;;;;;;;36.57;6.17;;;;;;;9.77;52.70;101511.28;10432082;28;20229;-67
2022/11/12 00:10:05;;;;;;;41.30;6.50;;;;;;;8.18;55.36;101519.41;10437193;28;20240;-66
2022/11/12 00:15:07;;;;;;;47.17;6.07;;;;;;;9.01;55.11;101519.66;10442614;28;20224;-67
2022/11/12 00:20:10;;;;;;;63.17;6.90;;;;;;;7.95;55.95;101518.66;10439655;28;20246;-66
2022/11/12 00:25:11;;;;;;;24.87;6.03;;;;;;;10.56;51.81;101474.72;10449190;23;20720;-37
2022/11/12 00:30:13;;;;;;;47.67;7.30;;;;;;;10.12;52.00;101505.44;10441575;28;20433;-36
2022/11/12 00:35:15;;;;;;;26.57;5.83;;;;;;;9.71;53.82;101501.94;10431077;28;20234;-37
2022/11/12 00:40:16;;;;;;;25.17;5.97;;;;;;;8.56;55.56;101518.06;10426689;28;20303;-34
2022/11/12 00:45:19;;;;;;;38.50;6.47;;;;;;;9.60;54.29;101483.34;10432797;28;20244;-35
2022/11/12 00:50:21;;;;;;;29.40;6.20;;;;;;;9.76;53.82;101469.47;10430560;28;20236;-34
2022/11/12 00:55:22;;;;;;;15.43;5.90;;;;;;;9.57;53.84;101473.78;10429765;28;20620;-34
2022/11/12 01:00:24;;;;;;;33.57;6.10;;;;;;;8.16;55.87;101499.19;10430488;28;20211;-34
2022/11/12 01:05:26;;;;;;;41.80;6.90;;;;;;;8.28;55.89;101499.00;10434148;28;20239;-34
2022/11/12 01:10:28;;;;;;;35.93;6.87;;;;;;;8.31;56.70;101494.44;10430320;28;20495;-34
2022/11/12 01:15:29;;;;;;;29.27;6.27;;;;;;;8.72;56.13;101474.06;10439644;28;20224;-34
2022/11/12 01:20:31;;;;;;;29.03;7.00;;;;;;;7.79;57.04;101484.34;10435666;28;20251;-35
2022/11/12 01:25:32;;;;;;;30.93;6.63;;;;;;;8.68;56.27;101470.81;10430269;28;20737;-34
2022/11/12 01:30:34;;;;;;;19.10;7.50;;;;;;;6.56;59.55;101443.41;10433683;28;20219;-34
2022/11/12 01:35:36;;;;;;;44.40;7.17;;;;;;;8.50;56.24;101454.53;10425255;28;20237;-34
2022/11/12 01:40:37;;;;;;;24.93;6.40;;;;;;;9.11;55.28;101442.25;10421904;28;20207;-35
2022/11/12 01:45:44;;;;;;;46.40;6.97;;;;;;;7.83;57.73;101466.28;10432549;28;20240;-34
2022/11/12 01:50:45;;;;;;;20.33;6.07;;;;;;;8.81;55.05;101446.59;10425617;28;20228;-34
2022/11/12 01:55:48;;;;;;;23.50;6.47;;;;;;;9.39;54.26;101441.50;10428583;28;20258;-35
2022/11/12 02:00:50;;;;;;;24.60;5.90;;;;;;;9.20;54.28;101444.97;10427951;28;20236;-35
2022/11/12 02:06:01;;;;;;;42.80;6.60;;;;;;;8.21;56.84;101473.00;10428041;28;20715;-34
2022/11/12 02:11:16;;;;;;;24.80;5.90;;;;;;;8.02;57.35;101469.19;10426225;28;20251;-35
2022/11/12 02:16:18;;;;;;;25.53;6.13;;;;;;;8.76;55.97;101446.16;10424765;28;20236;-34
2022/11/12 02:21:21;;;;;;;35.20;5.97;;;;;;;7.82;57.77;101452.13;10425986;28;20236;-34
2022/11/12 02:26:23;;;;;;;26.27;5.77;;;;;;;8.18;56.86;101443.91;10421709;28;20235;-35
2022/11/12 02:31:25;;;;;;;27.77;6.30;;;;;;;7.56;57.60;101443.59;10432909;28;20606;-34
2022/11/12 02:36:27;;;;;;;13.53;6.03;;;;;;;9.31;55.39;101405.78;10426814;28;20223;-34
2022/11/12 02:41:29;;;;;;;12.73;5.07;;;;;;;9.63;53.76;101410.06;10442053;28;20414;-34
2022/11/12 02:46:31;;;;;;;14.53;5.87;;;;;;;8.97;54.30;101427.44;10428673;28;20263;-35
2022/11/12 02:51:33;;;;;;;15.73;5.27;;;;;;;9.43;54.00;101415.38;10431429;28;20238;-35
2022/11/12 02:56:34;;;;;;;22.20;6.07;;;;;;;9.54;53.57;101407.25;10418359;28;20478;-35
2022/11/12 03:01:36;;;;;;;23.33;4.93;;;;;;;9.65;52.78;101421.47;10428116;28;20239;-35
2022/11/12 03:06:38;;;;;;;15.03;4.73;;;;;;;8.65;55.57;101455.91;10432454;28;20274;-34
2022/11/12 03:11:40;;;;;;;26.23;5.67;;;;;;;8.76;54.97;101471.00;10430046;28;20339;-34
2022/11/12 03:16:41;;;;;;;72.97;7.70;;;;;;;7.77;56.13;101446.34;10442152;28;20232;-34
2022/11/12 03:21:43;;;;;;;11.53;4.43;;;;;;;9.24;54.93;101445.56;10426866;28;20345;-34
2022/11/12 03:26:45;;;;;;;51.70;7.17;;;;;;;7.84;56.51;101460.88;10444092;28;20231;-34
2022/11/12 03:31:46;;;;;;;13.87;5.57;;;;;;;9.30;54.28;101449.50;10425002;28;20708;-35
2022/11/12 03:36:48;;;;;;;19.43;4.80;;;;;;;9.34;53.11;101453.59;10424485;28;20242;-35
2022/11/12 03:41:50;;;;;;;17.60;5.23;;;;;;;7.90;56.08;101471.03;10423075;28;20238;-34
2022/11/12 03:46:51;;;;;;;31.13;5.47;;;;;;;7.66;57.66;101465.88;10434702;28;20708;-34
2022/11/12 03:51:53;;;;;;;20.50;5.60;;;;;;;8.97;55.15;101446.13;10433563;28;20236;-34
2022/11/12 03:56:55;;;;;;;18.07;5.33;;;;;;;9.03;54.73;101454.47;10435211;28;20243;-34
2022/11/12 04:01:56;;;;;;;11.17;4.97;;;;;;;9.41;54.38;101449.41;10436710;28;20228;-34
2022/11/12 04:22:59;;;;;;;24.83;5.57;;;;;;;9.05;55.23;101419.63;10428637;28;20711;-34
2022/11/12 04:28:01;;;;;;;22.47;5.73;;;;;;;7.57;57.99;101433.78;10430838;28;20231;-34
2022/11/12 04:33:02;;;;;;;30.40;6.47;;;;;;;8.76;56.25;101409.63;10433470;28;20720;-34
2022/11/12 04:38:04;;;;;;;43.37;6.30;;;;;;;7.70;57.32;101437.16;10433244;28;20235;-34
2022/11/12 04:48:30;;;;;;;24.00;5.80;;;;;;;9.80;52.50;101420.06;10424773;28;20468;-37
2022/11/12 04:53:32;;;;;;;23.97;5.67;;;;;;;8.47;55.72;101444.13;10436215;28;20247;-35
2022/11/12 04:58:34;;;;;;;26.70;6.03;;;;;;;7.86;57.25;101442.09;10428069;28;20865;-35
2022/11/12 05:03:37;;;;;;;12.80;6.13;;;;;;;9.04;54.49;101415.25;10425617;28;20246;-35
2022/11/12 05:08:38;;;;;;;18.37;5.93;;;;;;;9.32;54.61;101426.19;10433098;28;20596;-35
2022/11/12 05:13:40;;;;;;;17.93;6.50;;;;;;;8.00;56.44;101447.16;10433847;28;20235;-35
2022/11/12 05:18:41;;;;;;;14.20;6.50;;;;;;;8.43;56.50;101446.22;10426674;28;20583;-35
2022/11/12 05:23:43;;;;;;;12.97;6.80;;;;;;;7.55;57.39;101431.25;10425190;28;20235;-34
2022/11/12 05:28:45;;;;;;;32.40;7.40;;;;;;;8.37;55.63;101421.88;10432888;28;20249;-35
2022/11/12 05:33:46;;;;;;;35.77;7.80;;;;;;;7.61;57.24;101424.56;10437409;28;20239;-35
2022/11/12 05:38:48;;;;;;;21.73;7.40;;;;;;;7.51;58.12;101428.00;10421571;28;20226;-35
2022/11/12 05:43:49;;;;;;;36.10;7.67;;;;;;;7.58;57.88;101424.81;10429083;28;20938;-35
2022/11/12 05:48:51;;;;;;;23.43;8.03;;;;;;;8.52;56.50;101403.72;10423566;28;20236;-35
2022/11/12 05:53:53;;;;;;;14.20;7.30;;;;;;;8.92;55.89;101400.31;10429375;28;20239;-35
2022/11/12 05:58:55;;;;;;;18.47;7.70;;;;;;;9.14;55.30;101393.94;10429827;28;20244;-34
2022/11/12 06:03:56;;;;;;;31.00;8.43;;;;;;;9.02;54.97;101407.38;10425612;28;20614;-35
2022/11/12 06:08:58;;;;;;;21.33;8.50;;;;;;;8.45;56.78;101424.75;10416558;28;20229;-34
2022/11/12 06:14:01;;;;;;;35.30;8.97;;;;;;;8.38;55.91;101428.91;10430297;28;20232;-34
2022/11/12 06:19:03;;;;;;;29.00;9.33;;;;;;;8.55;56.53;101432.81;10439542;28;20614;-34
2022/11/12 06:24:05;;;;;;;55.17;11.20;;;;;;;7.22;59.21;101443.63;10424987;28;20241;-35
2022/11/12 06:29:07;;;;;;;99.47;12.50;;;;;;;7.45;57.87;101448.94;10435992;28;20611;-35
2022/11/12 06:34:08;;;;;;;89.40;12.50;;;;;;;6.95;58.89;101441.31;10431899;28;20251;-35
2022/11/12 06:39:10;;;;;;;132.90;13.37;;;;;;;7.00;59.55;101449.78;10420454;28;20766;-34
2022/11/12 06:44:12;;;;;;;64.87;11.13;;;;;;;6.62;60.64;101446.47;10447838;23;20247;-68
2022/11/12 06:49:21;;;;;;;43.77;10.17;;;;;;;6.78;59.78;101456.81;10432451;28;20794;-69
2022/11/12 06:54:23;;;;;;;21.23;9.63;;;;;;;8.60;57.31;101427.94;10427212;28;20269;-69
2022/11/12 06:59:24;;;;;;;23.60;10.47;;;;;;;8.11;57.54;101446.25;10436175;28;20224;-69
2022/11/12 07:04:26;;;;;;;18.07;10.07;;;;;;;8.51;57.28;101442.06;10445471;28;20216;-69
2022/11/12 07:09:28;;;;;;;31.07;10.50;;;;;;;8.28;57.33;101443.00;10430372;28;20228;-69
2022/11/12 07:14:29;;;;;;;20.43;10.50;;;;;;;8.22;58.29;101432.88;10425952;28;20205;-69
2022/11/12 07:19:31;;;;;;;13.83;9.60;;;;;;;9.80;54.27;101428.09;10439304;28;20285;-70
2022/11/12 07:24:32;;;;;;;22.07;10.90;;;;;;;8.07;57.61;101458.16;10437701;28;20244;-69
2022/11/12 07:29:34;;;;;;;29.37;11.57;;;;;;;7.24;58.91;101452.34;10436778;28;20883;-69
2022/11/12 07:34:49;;;;;;;20.77;10.93;;;;;;;8.37;57.50;101449.41;10442572;28;20256;-69
2022/11/12 07:39:50;;;;;;;23.93;10.90;;;;;;;9.97;54.40;101429.25;10435915;28;20227;-69
2022/11/12 07:44:52;;;;;;;21.77;10.23;;;;;;;9.81;54.27;101439.66;10431946;28;20240;-70
2022/11/12 07:49:53;;;;;;;22.73;10.87;;;;;;;8.98;56.33;101431.81;10440823;28;20228;-69
2022/11/12 07:54:55;;;;;;;38.00;11.37;;;;;;;9.30;55.43;101447.69;10437984;28;20224;-69
2022/11/12 07:59:57;;;;;;;43.40;11.53;;;;;;;8.72;56.80;101468.72;10435915;28;20236;-69
2022/11/12 08:04:58;;;;;;;40.43;12.40;;;;;;;9.75;55.22;101451.72;10433397;28;20850;-70
2022/11/12 08:10:00;;;;;;;25.73;10.97;;;;;;;10.26;53.83;101460.50;10435976;28;20227;-69
2022/11/12 08:15:02;;;;;;;19.30;11.13;;;;;;;10.79;52.39;101488.66;10434594;28;20671;-69
2022/11/12 08:20:05;;;;;;;41.07;11.97;;;;;;;8.27;56.80;101480.50;10439355;28;20317;-69
2022/11/12 08:25:07;;;;;;;26.47;12.57;;;;;;;8.34;57.55;101487.00;10438367;28;20302;-69
2022/11/12 08:30:10;;;;;;;30.67;12.53;;;;;;;8.67;56.04;101478.00;10439584;28;20616;-69
2022/11/12 08:35:11;;;;;;;30.53;11.60;;;;;;;8.85;56.54;101482.72;10425717;28;20239;-69
2022/11/12 08:40:13;;;;;;;13.57;10.57;;;;;;;10.84;53.22;101483.72;10427743;28;20756;-69
2022/11/12 08:45:14;;;;;;;23.03;10.50;;;;;;;9.73;54.97;101496.47;10432152;28;20225;-69
2022/11/12 08:50:16;;;;;;;18.93;10.40;;;;;;;8.97;55.21;101489.69;10434949;28;20248;-69
2022/11/12 08:55:18;;;;;;;32.53;11.07;;;;;;;8.06;58.21;101483.09;10433888;28;21078;-69
2022/11/12 09:00:20;;;;;;;16.37;11.23;;;;;;;10.49;53.97;101477.13;10432680;28;20232;-69
2022/11/12 09:05:21;;;;;;;26.50;12.43;;;;;;;8.51;56.54;101490.94;10434144;28;20240;-69
2022/11/12 09:10:23;;;;;;;27.17;13.23;;;;;;;8.24;58.12;101502.94;10436437;28;20304;-69
2022/11/12 09:15:26;;;;;;;20.53;12.20;;;;;;;7.83;58.78;101495.63;10430137;28;20301;-69
2022/11/12 09:20:43;;;;;;;27.83;16.67;;;;;;;8.47;58.06;101495.69;10425136;28;20224;-69
2022/11/12 09:25:44;;;;;;;20.93;14.00;;;;;;;8.87;56.38;101478.13;10422631;28;20274;-69
2022/11/12 09:30:48;;;;;;;22.70;13.90;;;;;;;10.29;53.90;101484.31;10418796;28;20319;-70
2022/11/12 09:35:53;;;;;;;14.20;10.50;;;;;;;8.18;57.76;101503.41;10424698;28;20224;-70
2022/11/12 09:41:13;;;;;;;16.37;10.37;;;;;;;9.70;55.02;101480.69;10436822;28;20234;-70
2022/11/12 09:46:23;;;;;;;13.57;9.73;;;;;;;10.23;54.71;101471.53;10434205;28;20741;-70
2022/11/12 09:51:40;;;;;;;13.20;10.20;;;;;;;9.53;54.77;101514.28;10434883;28;20305;-70
2022/11/12 09:56:41;;;;;;;16.07;10.37;;;;;;;10.31;52.94;101511.78;10436971;28;20260;-70
2022/11/12 10:01:55;;;;;;;14.93;11.10;;;;;;;10.26;53.25;101520.25;10431320;28;20263;-70
2022/11/12 10:07:14;;;;;;;15.10;11.17;;;;;;;11.06;51.92;101531.59;10424849;28;20307;-70
2022/11/12 10:13:09;;;;;;;17.50;11.37;;;;;;;11.22;51.38;101522.94;10426042;28;20234;-70
2022/11/12 10:18:53;;;;;;;17.27;12.30;;;;;;;11.58;50.90;101536.47;10421330;28;20616;-70
2022/11/12 10:23:56;;;;;;;15.10;10.13;;;;;;;8.69;56.19;101533.91;10404826;28;20234;-70
2022/11/12 10:29:10;;;;;;;15.17;10.13;;;;;;;10.93;52.30;101496.22;10426670;28;20235;-70
2022/11/12 10:34:12;;;;;;;13.07;10.30;;;;;;;11.04;51.78;101498.75;10422314;28;20208;-69
2022/11/12 10:39:36;;;;;;;15.83;10.83;;;;;;;9.68;53.23;101523.59;10428902;28;20376;-70
2022/11/12 10:44:39;;;;;;;15.83;11.03;;;;;;;10.97;52.44;101508.38;10429318;28;20294;-70
2022/11/12 10:49:41;;;;;;;14.50;10.53;;;;;;;11.36;51.74;101492.13;10419602;28;20700;-70
2022/11/12 10:54:42;;;;;;;11.93;9.70;;;;;;;11.93;50.62;101507.22;10428743;28;20779;-70
2022/11/12 10:59:44;;;;;;;12.30;10.20;;;;;;;11.66;50.40;101492.88;10421535;28;20291;-70
2022/11/12 11:06:12;;;;;;;14.23;10.80;;;;;;;7.73;60.32;101445.75;10441801;27;21182;-69
2022/11/12 11:11:19;;;;;;;17.70;10.83;;;;;;;6.24;64.52;101401.50;10386282;28;20228;-69
2022/11/12 11:16:26;;;;;;;13.83;11.20;;;;;;;7.86;60.37;101400.28;10391760;28;20718;-68
2022/11/12 11:21:57;;;;;;;17.30;13.03;;;;;;;6.81;62.87;101395.34;10386457;28;20389;-69
2022/11/12 11:27:20;;;;;;;15.97;11.83;;;;;;;7.44;60.86;101386.84;10388743;28;20240;-69
2022/11/12 11:32:50;;;;;;;24.33;18.47;;;;;;;6.61;63.50;101377.41;10397290;28;20227;-69
2022/11/12 11:38:11;;;;;;;14.57;13.03;;;;;;;8.10;60.09;101356.59;10393996;28;20233;-69
2022/11/12 11:43:31;;;;;;;15.23;11.53;;;;;;;9.01;57.85;101356.75;10388657;28;20244;-69
2022/11/12 11:48:42;;;;;;;14.47;12.30;;;;;;;9.50;56.74;101379.13;10374885;28;20505;-69
2022/11/12 11:54:20;;;;;;;17.00;12.47;;;;;;;8.79;58.40;101369.31;10381352;28;20894;-69
2022/11/12 11:59:59;;;;;;;22.83;15.03;;;;;;;7.99;60.10;101385.97;10354107;28;20228;-68
2022/11/12 12:05:23;;;;;;;21.63;15.13;;;;;;;8.58;59.17;101356.00;10345501;28;20222;-68
2022/11/12 12:11:03;;;;;;;24.50;14.60;;;;;;;9.10;57.24;101360.47;10353123;28;20222;-69
2022/11/12 12:16:19;;;;;;;25.57;14.93;;;;;;;7.92;59.08;101366.97;10331211;28;20232;-69
2022/11/12 12:21:24;;;;;;;17.87;13.97;;;;;;;8.97;57.65;101336.66;10320994;28;20222;-69
2022/11/12 12:26:40;;;;;;;19.27;14.07;;;;;;;9.28;58.01;101352.63;10326666;28;20245;-69
2022/11/12 12:32:14;;;;;;;21.80;15.30;;;;;;;8.31;59.28;101353.91;10350300;28;20221;-67
2022/11/12 12:37:38;;;;;;;18.60;14.40;;;;;;;7.86;59.89;101344.31;10358674;28;20616;-69
2022/11/12 12:42:51;;;;;;;22.27;16.57;;;;;;;8.73;59.19;101331.66;10349766;28;20240;-68
2022/11/12 12:47:54;;;;;;;22.90;16.73;;;;;;;9.13;57.16;101333.47;10349080;28;20257;-69
2022/11/12 12:53:04;;;;;;;22.10;16.73;;;;;;;9.13;56.74;101338.81;10362227;28;20584;-69
2022/11/12 12:58:21;;;;;;;23.67;17.03;;;;;;;9.51;56.82;101348.72;10351530;28;20240;-68
2022/11/12 13:03:41;;;;;;;27.00;17.03;;;;;;;8.73;58.49;101337.81;10365276;28;20729;-69
2022/11/12 13:08:43;;;;;;;29.43;16.63;;;;;;;8.24;58.98;101337.56;10364064;28;20228;-69
2022/11/12 13:13:44;;;;;;;24.17;16.67;;;;;;;9.42;55.96;101332.69;10362167;28;20262;-69
2022/11/12 13:18:49;;;;;;;21.27;16.27;;;;;;;9.28;56.64;101345.47;10354509;28;20740;-68
2022/11/12 13:24:06;;;;;;;24.40;17.37;;;;;;;10.11;54.98;101337.91;10361068;28;20432;-68
2022/11/12 13:29:26;;;;;;;29.67;18.47;;;;;;;9.31;56.57;101347.84;10350697;28;20237;-67
2022/11/12 13:34:32;;;;;;;23.27;15.40;;;;;;;9.06;56.15;101341.19;10354143;28;20225;-67
2022/11/12 13:39:35;;;;;;;28.87;17.43;;;;;;;7.53;60.37;101354.13;10352234;28;20249;-68
2022/11/12 13:44:37;;;;;;;35.00;18.37;;;;;;;7.97;58.91;101326.59;10356446;28;20706;-68
2022/11/12 13:49:38;;;;;;;44.17;18.13;;;;;;;7.42;60.16;101332.00;10349650;28;20236;-67
2022/11/12 13:54:41;;;;;;;19.77;15.10;;;;;;;8.32;57.97;101314.72;10354426;28;20233;-69
2022/11/12 13:59:45;;;;;;;22.23;15.80;;;;;;;9.05;56.38;101320.81;10351311;28;20669;-69
2022/11/12 14:04:47;;;;;;;25.17;16.57;;;;;;;8.32;58.74;101338.72;10352689;28;20237;-70
2022/11/12 14:09:59;;;;;;;26.70;17.17;;;;;;;8.90;56.92;101324.84;10357557;28;20559;-70
2022/11/12 14:15:25;;;;;;;32.13;17.63;;;;;;;7.90;58.88;101328.94;10349531;28;20240;-69
2022/11/12 14:20:38;;;;;;;29.93;18.87;;;;;;;7.61;59.68;101326.84;10359535;28;20243;-68
2022/11/12 14:25:47;;;;;;;44.07;20.20;;;;;;;7.81;59.22;101322.50;10355540;28;20771;-69
2022/11/12 14:30:49;;;;;;;27.20;18.73;;;;;;;9.01;56.74;101306.03;10353161;28;20263;-70
2022/11/12 14:35:54;;;;;;;29.40;19.53;;;;;;;8.88;56.66;101297.47;10354391;28;20237;-70
2022/11/12 14:41:10;;;;;;;46.83;21.83;;;;;;;7.99;58.53;101314.81;10353180;28;20616;-71
2022/11/12 14:46:36;;;;;;;41.17;19.87;;;;;;;7.01;60.40;101307.78;10354820;28;20225;-70
2022/11/12 14:51:46;;;;;;;49.43;21.70;;;;;;;7.20;61.06;101298.28;10360020;28;20237;-70
2022/11/12 14:56:48;;;;;;;68.47;21.83;;;;;;;7.01;59.73;101304.28;10347401;28;20240;-71
2022/11/12 15:02:05;;;;;;;48.10;21.37;;;;;;;7.16;60.09;101295.03;10356311;28;20310;-70
2022/11/12 15:07:32;;;;;;;49.50;21.50;;;;;;;8.20;58.64;101266.81;10347024;28;20671;-69
2022/11/12 15:12:34;;;;;;;39.17;21.87;;;;;;;8.08;59.26;101263.41;10356552;28;20251;-71
2022/11/12 15:17:36;;;;;;;38.23;21.93;;;;;;;8.39;57.83;101255.38;10347396;28;20473;-71
2022/11/12 15:22:38;;;;;;;39.83;21.70;;;;;;;8.17;58.49;101252.88;10346582;28;20238;-70
2022/11/12 15:27:41;;;;;;;37.67;21.27;;;;;;;8.25;57.88;101248.59;10349316;28;20248;-70
2022/11/12 15:32:44;;;;;;;35.63;19.93;;;;;;;8.45;57.22;101241.53;10359411;28;20606;-69
2022/11/12 15:37:45;;;;;;;33.10;20.17;;;;;;;8.57;57.26;101252.94;10351254;28;20229;-70
2022/11/12 15:42:47;;;;;;;55.00;21.40;;;;;;;8.21;58.33;101238.31;10345105;28;20226;-70
2022/11/12 15:47:49;;;;;;;32.87;20.57;;;;;;;8.87;56.16;101235.19;10346323;28;20303;-72
2022/11/12 15:52:50;;;;;;;37.70;21.50;;;;;;;8.50;56.96;101248.25;10359114;28;20229;-72
2022/11/12 15:57:52;;;;;;;33.87;21.10;;;;;;;7.65;59.05;101263.50;10361984;28;20601;-68
2022/11/12 16:03:04;;;;;;;28.30;21.00;;;;;;;8.06;57.14;101241.31;10357014;28;20263;-68
2022/11/12 16:08:06;;;;;;;38.73;20.10;;;;;;;8.16;57.67;101245.88;10360768;28;20300;-70
2022/11/12 16:13:29;;;;;;;32.40;22.13;;;;;;;7.99;58.00;101236.66;10363478;28;20221;-68
2022/11/12 16:18:31;;;;;;;39.90;21.80;;;;;;;7.27;59.15;101241.72;10360920;28;20917;-69
2022/11/12 16:23:33;;;;;;;46.03;21.77;;;;;;;7.87;57.63;101238.56;10352499;28;20594;-70
2022/11/12 16:28:35;;;;;;;34.20;21.40;;;;;;;8.77;57.40;101239.63;10355267;28;20232;-68
2022/11/12 16:33:37;;;;;;;33.00;22.70;;;;;;;9.14;55.96;101236.34;10362000;28;20221;-69
2022/11/12 16:38:38;;;;;;;53.57;23.40;;;;;;;6.79;60.31;101216.34;10357819;28;20287;-71
2022/11/12 16:43:40;;;;;;;33.13;23.10;;;;;;;9.26;56.47;101234.38;10359013;28;20230;-69
2022/11/12 16:48:41;;;;;;;29.60;20.33;;;;;;;8.76;56.93;101225.47;10358883;28;20233;-73
2022/11/12 16:53:44;;;;;;;35.93;22.70;;;;;;;8.47;57.34;101220.03;10353595;28;20229;-73
2022/11/12 16:58:47;;;;;;;33.33;22.27;;;;;;;9.52;55.18;101238.19;10359614;28;20234;-70
2022/11/12 17:03:50;;;;;;;29.77;21.47;;;;;;;8.74;56.32;101219.41;10357795;28;20703;-70
2022/11/12 17:08:54;;;;;;;32.40;22.00;;;;;;;7.90;58.35;101225.81;10351368;28;20243;-70
2022/11/12 17:13:56;;;;;;;34.97;23.07;;;;;;;8.52;57.54;101228.47;10356018;28;20220;-72
2022/11/12 17:19:00;;;;;;;32.67;21.90;;;;;;;9.57;55.33;101243.94;10351832;28;20237;-72
2022/11/12 17:24:02;;;;;;;40.60;23.20;;;;;;;8.38;56.30;101232.34;10350338;28;20610;-71
2022/11/12 17:29:04;;;;;;;40.10;22.40;;;;;;;7.46;59.34;101230.41;10356122;28;20233;-71
2022/11/12 17:34:09;;;;;;;35.03;23.23;;;;;;;8.92;57.62;101229.44;10363280;28;20226;-71
2022/11/12 17:39:11;;;;;;;37.23;23.33;;;;;;;8.62;56.95;101213.34;10358421;28;20232;-71
2022/11/12 17:44:16;;;;;;;45.63;25.33;;;;;;;8.30;58.42;101226.84;10355583;28;20234;-71
2022/11/12 17:49:18;;;;;;;56.27;23.67;;;;;;;9.10;56.74;101214.44;10366188;28;20634;-71
2022/11/12 17:54:20;;;;;;;45.40;23.70;;;;;;;8.44;58.20;101221.16;10357255;28;20233;-71
2022/11/12 17:59:21;;;;;;;53.17;24.87;;;;;;;8.03;59.36;101219.41;10358825;28;20661;-71
2022/11/12 18:04:23;;;;;;;51.17;25.00;;;;;;;7.28;60.40;101192.00;10355157;28;20647;-71
2022/11/12 18:09:30;;;;;;;56.67;24.30;;;;;;;7.88;59.72;101194.94;10341816;28;20316;-71
2022/11/12 18:14:31;;;;;;;47.10;22.93;;;;;;;8.76;57.41;101188.09;10350646;28;20758;-71
2022/11/12 18:19:33;;;;;;;38.60;23.00;;;;;;;9.89;55.36;101221.41;10363663;28;20244;-71
2022/11/12 18:24:35;;;;;;;55.50;23.57;;;;;;;7.79;59.60;101191.22;10363711;28;20228;-71
2022/11/12 18:29:39;;;;;;;45.63;24.07;;;;;;;8.71;58.22;101193.00;10374088;22;20697;-34
2022/11/12 18:34:43;;;;;;;60.77;21.93;;;;;;;8.91;57.29;101193.03;10364247;28;20232;-34
2022/11/12 18:39:45;;;;;;;44.30;21.97;;;;;;;9.38;56.58;101209.22;10356525;28;20602;-45
2022/11/12 18:44:47;;;;;;;51.97;22.03;;;;;;;8.87;57.83;101196.97;10357788;28;20226;-39
2022/11/12 18:49:48;;;;;;;51.77;22.30;;;;;;;8.69;57.79;101180.75;10343063;28;20242;-42
2022/11/12 18:54:50;;;;;;;47.27;22.23;;;;;;;8.62;57.53;101177.78;10361772;28;20237;-44
2022/11/12 18:59:53;;;;;;;49.90;22.83;;;;;;;9.34;57.06;101176.59;10366819;28;20495;-45
2022/11/12 19:04:55;;;;;;;72.53;24.23;;;;;;;8.54;59.74;101157.16;10355827;28;20232;-44
2022/11/12 19:09:57;;;;;;;117.53;26.97;;;;;;;8.21;59.17;101150.31;10351087;28;20233;-44
2022/11/12 19:14:58;;;;;;;88.47;25.13;;;;;;;8.06;60.16;101152.50;10355258;28;20236;-40
2022/11/12 19:20:00;;;;;;;123.87;27.20;;;;;;;7.69;61.46;101150.34;10359992;28;20236;-43
2022/11/12 19:25:02;;;;;;;115.13;28.50;;;;;;;8.42;59.81;101148.44;10362566;28;20246;-44
2022/11/12 19:30:05;;;;;;;76.90;28.00;;;;;;;8.94;57.91;101139.38;10360049;28;20233;-44
2022/11/12 19:35:07;;;;;;;92.13;27.73;;;;;;;8.73;58.97;101129.66;10363763;28;20717;-40
2022/11/12 19:40:10;;;;;;;118.07;28.23;;;;;;;8.37;58.70;101126.66;10360359;28;21255;-40
2022/11/12 19:45:12;;;;;;;106.97;28.63;;;;;;;7.54;61.80;101140.03;10370704;28;20222;-42
2022/11/12 19:50:13;;;;;;;152.33;30.67;;;;;;;7.95;60.62;101126.81;10362598;28;20252;-35
2022/11/12 19:55:15;;;;;;;160.30;36.43;;;;;;;8.50;60.75;101120.22;10365211;28;20640;-41
2022/11/12 20:00:17;;;;;;;152.87;31.57;;;;;;;8.08;60.10;101106.09;10365232;28;20234;-44
2022/11/12 20:05:18;;;;;;;116.33;29.93;;;;;;;7.70;60.67;101110.25;10361837;28;20259;-44
2022/11/12 20:10:20;;;;;;;103.80;27.97;;;;;;;8.77;59.23;101128.38;10355285;28;20236;-41
2022/11/12 20:15:22;;;;;;;115.50;30.00;;;;;;;7.84;60.21;101106.41;10355760;28;20244;-44
2022/11/12 20:20:24;;;;;;;155.97;30.43;;;;;;;7.59;61.15;101109.50;10361102;28;20233;-43
2022/11/12 20:25:25;;;;;;;112.00;29.67;;;;;;;9.31;58.31;101114.59;10356661;28;20245;-41
2022/11/12 20:30:27;;;;;;;169.87;32.10;;;;;;;7.40;61.24;101083.59;10361048;28;20633;-39
2022/11/12 20:35:29;;;;;;;120.80;28.70;;;;;;;7.82;60.73;101078.19;10361542;28;20241;-41
2022/11/12 20:40:31;;;;;;;115.77;28.53;;;;;;;8.78;58.82;101092.69;10365235;28;20561;-43
2022/11/12 20:45:34;;;;;;;85.33;26.93;;;;;;;8.24;59.35;101067.38;10363095;28;20247;-44
2022/11/12 20:50:35;;;;;;;143.60;32.60;;;;;;;7.30;60.39;101072.88;10362873;28;20260;-46
2022/11/12 20:55:38;;;;;;;116.73;28.40;;;;;;;7.80;59.33;101078.31;10352133;28;20231;-44
2022/11/12 21:00:39;;;;;;;104.73;28.07;;;;;;;8.05;60.35;101092.16;10358801;28;20234;-44
2022/11/12 21:05:41;;;;;;;56.73;26.70;;;;;;;8.54;58.97;101089.59;10353771;28;20229;-43
2022/11/12 21:10:47;;;;;;;155.47;29.73;;;;;;;6.71;62.71;101047.66;10354660;28;20226;-41
2022/11/12 21:15:50;;;;;;;111.13;27.83;;;;;;;7.48;61.31;101068.66;10363119;28;20238;-43
2022/11/12 21:21:00;;;;;;;92.20;28.07;;;;;;;8.56;59.05;101082.31;10358762;28;20236;-44
2022/11/12 21:26:08;;;;;;;99.97;27.53;;;;;;;8.02;60.68;101068.47;10354230;28;20233;-43
2022/11/12 21:31:17;;;;;;;81.87;28.57;;;;;;;7.69;59.97;101062.41;10349883;28;20260;-43
2022/11/12 21:36:19;;;;;;;134.40;28.10;;;;;;;7.50;60.59;101072.00;10355804;28;20245;-44
2022/11/12 21:41:23;;;;;;;66.23;25.97;;;;;;;9.55;56.22;101106.97;10349797;28;20225;-45
2022/11/12 21:46:27;;;;;;;74.13;27.23;;;;;;;9.60;56.27;101117.19;10365915;28;20242;-43
2022/11/12 21:51:32;;;;;;;81.90;27.77;;;;;;;8.90;57.76;101121.97;10354964;28;20218;-44
2022/11/12 21:56:34;;;;;;;70.23;25.53;;;;;;;9.02;58.00;101102.97;10363593;28;20292;-44
2022/11/12 22:01:35;;;;;;;91.73;25.00;;;;;;;8.02;58.54;101087.97;10360017;28;20210;-44
2022/11/12 22:06:37;;;;;;;78.70;24.53;;;;;;;8.31;59.77;101086.34;10351344;28;20710;-44
2022/11/12 22:11:39;;;;;;;67.17;23.13;;;;;;;9.13;57.71;101093.13;10344975;28;20868;-44
2022/11/12 22:16:41;;;;;;;62.37;24.20;;;;;;;8.45;58.84;101081.47;10358237;28;20210;-43
2022/11/12 22:21:43;;;;;;;101.40;24.57;;;;;;;7.89;59.96;101082.03;10350450;28;20218;-44
2022/11/12 22:26:45;;;;;;;56.43;22.57;;;;;;;8.20;58.75;101064.16;10354315;28;20691;-43
2022/11/12 22:31:46;;;;;;;42.50;19.63;;;;;;;9.50;56.86;101077.16;10352807;28;20477;-43
2022/11/12 22:36:48;;;;;;;136.20;25.83;;;;;;;8.04;59.01;101056.66;10346895;28;20198;-42
2022/11/12 22:41:50;;;;;;;84.87;22.40;;;;;;;7.25;60.63;101051.13;10350270;28;20723;-45
2022/11/12 22:46:51;;;;;;;85.53;20.03;;;;;;;8.39;58.94;101043.84;10349043;28;20275;-44
2022/11/12 22:51:54;;;;;;;94.30;21.90;;;;;;;7.70;59.39;101038.31;10374753;28;20248;-41
2022/11/12 22:56:57;;;;;;;77.10;21.00;;;;;;;7.78;60.27;101032.31;10359184;28;20291;-43
2022/11/12 23:01:59;;;;;;;41.73;20.17;;;;;;;8.72;57.99;101031.88;10355102;28;20240;-47
2022/11/12 23:07:00;;;;;;;50.03;19.67;;;;;;;9.15;57.05;101043.94;10359567;28;20717;-44
2022/11/12 23:12:02;;;;;;;65.13;19.40;;;;;;;8.20;58.32;101009.97;10362142;28;20247;-45
2022/11/12 23:17:04;;;;;;;93.77;20.73;;;;;;;7.74;59.36;101005.06;10349744;28;20735;-40
2022/11/12 23:22:06;;;;;;;73.53;19.53;;;;;;;8.03;59.41;101014.16;10359301;28;20267;-45
2022/11/12 23:27:08;;;;;;;105.83;20.80;;;;;;;8.61;58.08;101010.69;10348336;28;20248;-43